sensor_id;sensor_type;location;lat;lon;timestamp;P1;durP1;ratioP1;P2;durP2;ratioP2
39400;SDS011;54391;50.000;7.360;2023-05-10T00:01:22;1.30;;;1.10;;
39400;SDS011;54391;50.000;7.360;2023-05-10T00:03:50;1.40;;;1.20;;
39400;SDS011;54391;50.000;7.360;2023-05-10T00:06:17;1.52;;;1.15;;
39400;SDS011;54391;50.000;7.360;2023-05-10T00:08:44;1.40;;;1.20;;
39400;SDS011;54391;50.000;7.360;2023-05-10T00:11:12;1.50;;;1.40;;
39400;SDS011;54391;50.000;7.360;2023-05-10T00:13:39;1.75;;;1.38;;
39400;SDS011;54391;50.000;7.360;2023-05-10T00:16:06;2.22;;;1.50;;
39400;SDS011;54391;50.000;7.360;2023-05-10T00:18:35;2.15;;;1.30;;
39400;SDS011;54391;50.000;7.360;2023-05-10T00:21:02;1.40;;;1.20;;
39400;SDS011;54391;50.000;7.360;2023-05-10T00:23:29;1.40;;;1.13;;
39400;SDS011;54391;50.000;7.360;2023-05-10T00:25:57;2.15;;;1.70;;
39400;SDS011;54391;50.000;7.360;2023-05-10T00:28:24;1.70;;;1.50;;
39400;SDS011;54391;50.000;7.360;2023-05-10T00:30:53;1.52;;;1.33;;
39400;SDS011;54391;50.000;7.360;2023-05-10T00:33:21;6.10;;;1.92;;
39400;SDS011;54391;50.000;7.360;2023-05-10T00:35:50;2.08;;;1.73;;
39400;SDS011;54391;50.000;7.360;2023-05-10T00:38:17;1.95;;;1.65;;
39400;SDS011;54391;50.000;7.360;2023-05-10T00:40:45;2.60;;;1.80;;
39400;SDS011;54391;50.000;7.360;2023-05-10T00:43:19;2.55;;;1.60;;
39400;SDS011;54391;50.000;7.360;2023-05-10T00:45:47;2.50;;;2.08;;
39400;SDS011;54391;50.000;7.360;2023-05-10T00:48:14;2.13;;;1.90;;
39400;SDS011;54391;50.000;7.360;2023-05-10T00:50:42;2.80;;;1.50;;
39400;SDS011;54391;50.000;7.360;2023-05-10T00:53:11;2.50;;;1.50;;
39400;SDS011;54391;50.000;7.360;2023-05-10T00:55:38;2.17;;;1.77;;
39400;SDS011;54391;50.000;7.360;2023-05-10T00:58:06;2.28;;;1.92;;
39400;SDS011;54391;50.000;7.360;2023-05-10T01:00:33;2.47;;;2.05;;
39400;SDS011;54391;50.000;7.360;2023-05-10T01:03:02;2.75;;;2.15;;
39400;SDS011;54391;50.000;7.360;2023-05-10T01:05:30;4.18;;;2.60;;
39400;SDS011;54391;50.000;7.360;2023-05-10T01:07:57;3.88;;;2.72;;
39400;SDS011;54391;50.000;7.360;2023-05-10T01:10:25;2.90;;;2.30;;
39400;SDS011;54391;50.000;7.360;2023-05-10T01:12:53;3.13;;;2.38;;
39400;SDS011;54391;50.000;7.360;2023-05-10T01:15:20;3.83;;;2.88;;
39400;SDS011;54391;50.000;7.360;2023-05-10T01:17:48;2.90;;;2.35;;
39400;SDS011;54391;50.000;7.360;2023-05-10T01:20:16;3.55;;;2.65;;
39400;SDS011;54391;50.000;7.360;2023-05-10T01:25:55;4.35;;;2.63;;
39400;SDS011;54391;50.000;7.360;2023-05-10T01:28:48;3.25;;;2.63;;
39400;SDS011;54391;50.000;7.360;2023-05-10T01:31:35;8.00;;;2.40;;
39400;SDS011;54391;50.000;7.360;2023-05-10T01:34:35;3.28;;;2.70;;
39400;SDS011;54391;50.000;7.360;2023-05-10T01:37:10;3.33;;;2.60;;
39400;SDS011;54391;50.000;7.360;2023-05-10T01:39:42;2.80;;;2.20;;
39400;SDS011;54391;50.000;7.360;2023-05-10T01:42:14;2.85;;;2.40;;
39400;SDS011;54391;50.000;7.360;2023-05-10T01:44:48;2.55;;;2.30;;
39400;SDS011;54391;50.000;7.360;2023-05-10T01:47:23;3.53;;;2.50;;
39400;SDS011;54391;50.000;7.360;2023-05-10T01:49:57;3.28;;;2.35;;
39400;SDS011;54391;50.000;7.360;2023-05-10T01:52:30;5.68;;;2.60;;
39400;SDS011;54391;50.000;7.360;2023-05-10T01:55:00;3.00;;;2.40;;
39400;SDS011;54391;50.000;7.360;2023-05-10T01:57:32;3.63;;;2.35;;
39400;SDS011;54391;50.000;7.360;2023-05-10T02:00:02;2.58;;;2.20;;
39400;SDS011;54391;50.000;7.360;2023-05-10T02:02:42;3.30;;;2.25;;
39400;SDS011;54391;50.000;7.360;2023-05-10T02:05:12;2.85;;;2.38;;
39400;SDS011;54391;50.000;7.360;2023-05-10T02:07:41;2.80;;;2.30;;
39400;SDS011;54391;50.000;7.360;2023-05-10T02:10:10;3.65;;;2.03;;
39400;SDS011;54391;50.000;7.360;2023-05-10T02:12:39;4.60;;;2.10;;
39400;SDS011;54391;50.000;7.360;2023-05-10T02:15:10;4.70;;;2.10;;
39400;SDS011;54391;50.000;7.360;2023-05-10T02:17:42;2.53;;;2.10;;
39400;SDS011;54391;50.000;7.360;2023-05-10T02:20:11;3.30;;;2.35;;
39400;SDS011;54391;50.000;7.360;2023-05-10T02:22:40;2.58;;;2.20;;
39400;SDS011;54391;50.000;7.360;2023-05-10T02:25:09;5.32;;;2.65;;
39400;SDS011;54391;50.000;7.360;2023-05-10T02:27:39;4.32;;;2.40;;
39400;SDS011;54391;50.000;7.360;2023-05-10T02:30:09;3.58;;;2.40;;
39400;SDS011;54391;50.000;7.360;2023-05-10T02:32:38;3.63;;;2.13;;
39400;SDS011;54391;50.000;7.360;2023-05-10T02:35:07;3.63;;;2.33;;
39400;SDS011;54391;50.000;7.360;2023-05-10T02:37:36;3.40;;;2.42;;
39400;SDS011;54391;50.000;7.360;2023-05-10T02:40:05;4.55;;;2.58;;
39400;SDS011;54391;50.000;7.360;2023-05-10T02:42:35;4.57;;;2.42;;
39400;SDS011;54391;50.000;7.360;2023-05-10T02:45:05;4.68;;;2.42;;
39400;SDS011;54391;50.000;7.360;2023-05-10T02:47:36;4.65;;;2.60;;
39400;SDS011;54391;50.000;7.360;2023-05-10T02:50:04;5.00;;;3.13;;
39400;SDS011;54391;50.000;7.360;2023-05-10T02:52:36;3.55;;;2.70;;
39400;SDS011;54391;50.000;7.360;2023-05-10T02:55:07;4.38;;;2.50;;
39400;SDS011;54391;50.000;7.360;2023-05-10T02:57:39;2.95;;;2.58;;
39400;SDS011;54391;50.000;7.360;2023-05-10T03:00:10;5.20;;;2.60;;
39400;SDS011;54391;50.000;7.360;2023-05-10T03:02:38;4.28;;;3.38;;
39400;SDS011;54391;50.000;7.360;2023-05-10T03:05:05;4.55;;;2.70;;
39400;SDS011;54391;50.000;7.360;2023-05-10T03:07:33;4.70;;;2.70;;
39400;SDS011;54391;50.000;7.360;2023-05-10T03:10:02;4.78;;;2.50;;
39400;SDS011;54391;50.000;7.360;2023-05-10T03:12:33;3.45;;;2.80;;
39400;SDS011;54391;50.000;7.360;2023-05-10T03:15:13;3.92;;;2.65;;
39400;SDS011;54391;50.000;7.360;2023-05-10T03:17:47;3.85;;;2.90;;
39400;SDS011;54391;50.000;7.360;2023-05-10T03:20:21;3.53;;;2.55;;
39400;SDS011;54391;50.000;7.360;2023-05-10T03:22:55;3.42;;;2.22;;
39400;SDS011;54391;50.000;7.360;2023-05-10T03:25:31;2.75;;;1.92;;
39400;SDS011;54391;50.000;7.360;2023-05-10T03:27:59;3.17;;;2.10;;
39400;SDS011;54391;50.000;7.360;2023-05-10T03:30:29;3.58;;;2.50;;
39400;SDS011;54391;50.000;7.360;2023-05-10T03:32:57;3.60;;;2.20;;
39400;SDS011;54391;50.000;7.360;2023-05-10T03:35:30;4.82;;;2.25;;
39400;SDS011;54391;50.000;7.360;2023-05-10T03:37:59;3.70;;;2.55;;
39400;SDS011;54391;50.000;7.360;2023-05-10T03:40:26;4.88;;;2.55;;
39400;SDS011;54391;50.000;7.360;2023-05-10T03:42:56;5.40;;;2.72;;
39400;SDS011;54391;50.000;7.360;2023-05-10T03:45:24;3.30;;;2.22;;
39400;SDS011;54391;50.000;7.360;2023-05-10T03:47:51;3.58;;;2.40;;
39400;SDS011;54391;50.000;7.360;2023-05-10T03:50:19;4.53;;;2.55;;
39400;SDS011;54391;50.000;7.360;2023-05-10T03:52:46;3.60;;;2.25;;
39400;SDS011;54391;50.000;7.360;2023-05-10T03:55:16;4.47;;;2.60;;
39400;SDS011;54391;50.000;7.360;2023-05-10T03:57:43;3.88;;;2.25;;
39400;SDS011;54391;50.000;7.360;2023-05-10T04:00:11;3.90;;;2.42;;
39400;SDS011;54391;50.000;7.360;2023-05-10T04:02:42;4.15;;;2.47;;
39400;SDS011;54391;50.000;7.360;2023-05-10T04:05:15;4.90;;;2.38;;
39400;SDS011;54391;50.000;7.360;2023-05-10T04:07:42;4.00;;;2.53;;
39400;SDS011;54391;50.000;7.360;2023-05-10T04:10:10;3.42;;;2.40;;
39400;SDS011;54391;50.000;7.360;2023-05-10T04:12:39;4.63;;;3.03;;
39400;SDS011;54391;50.000;7.360;2023-05-10T04:15:06;4.22;;;2.60;;
39400;SDS011;54391;50.000;7.360;2023-05-10T04:17:34;4.90;;;2.75;;
39400;SDS011;54391;50.000;7.360;2023-05-10T04:20:01;4.68;;;2.60;;
39400;SDS011;54391;50.000;7.360;2023-05-10T04:22:29;6.05;;;2.88;;
39400;SDS011;54391;50.000;7.360;2023-05-10T04:24:56;4.18;;;2.80;;
39400;SDS011;54391;50.000;7.360;2023-05-10T04:27:23;4.20;;;2.22;;
39400;SDS011;54391;50.000;7.360;2023-05-10T04:29:52;7.05;;;2.85;;
39400;SDS011;54391;50.000;7.360;2023-05-10T04:32:19;3.70;;;2.55;;
39400;SDS011;54391;50.000;7.360;2023-05-10T04:34:46;4.57;;;2.50;;
39400;SDS011;54391;50.000;7.360;2023-05-10T04:37:14;3.60;;;3.00;;
39400;SDS011;54391;50.000;7.360;2023-05-10T04:39:41;5.10;;;2.88;;
39400;SDS011;54391;50.000;7.360;2023-05-10T04:42:09;3.28;;;2.38;;
39400;SDS011;54391;50.000;7.360;2023-05-10T04:44:37;3.17;;;2.55;;
39400;SDS011;54391;50.000;7.360;2023-05-10T04:47:05;7.72;;;3.00;;
39400;SDS011;54391;50.000;7.360;2023-05-10T04:49:32;4.60;;;2.60;;
39400;SDS011;54391;50.000;7.360;2023-05-10T04:52:00;4.20;;;2.50;;
39400;SDS011;54391;50.000;7.360;2023-05-10T04:54:27;4.15;;;2.75;;
39400;SDS011;54391;50.000;7.360;2023-05-10T04:56:54;5.28;;;2.85;;
39400;SDS011;54391;50.000;7.360;2023-05-10T04:59:21;3.72;;;2.38;;
39400;SDS011;54391;50.000;7.360;2023-05-10T05:01:48;3.92;;;2.50;;
39400;SDS011;54391;50.000;7.360;2023-05-10T05:04:17;4.22;;;2.60;;
39400;SDS011;54391;50.000;7.360;2023-05-10T05:06:44;4.82;;;2.60;;
39400;SDS011;54391;50.000;7.360;2023-05-10T05:09:11;4.88;;;2.45;;
39400;SDS011;54391;50.000;7.360;2023-05-10T05:11:38;4.35;;;2.53;;
39400;SDS011;54391;50.000;7.360;2023-05-10T05:14:06;3.05;;;2.28;;
39400;SDS011;54391;50.000;7.360;2023-05-10T05:16:33;5.63;;;2.55;;
39400;SDS011;54391;50.000;7.360;2023-05-10T05:19:00;7.05;;;2.72;;
39400;SDS011;54391;50.000;7.360;2023-05-10T05:21:29;7.15;;;2.80;;
39400;SDS011;54391;50.000;7.360;2023-05-10T05:23:57;4.60;;;2.65;;
39400;SDS011;54391;50.000;7.360;2023-05-10T05:26:25;5.95;;;2.72;;
39400;SDS011;54391;50.000;7.360;2023-05-10T05:28:53;7.75;;;3.03;;
39400;SDS011;54391;50.000;7.360;2023-05-10T05:31:20;6.93;;;3.05;;
39400;SDS011;54391;50.000;7.360;2023-05-10T05:33:47;6.68;;;2.40;;
39400;SDS011;54391;50.000;7.360;2023-05-10T05:36:14;8.85;;;2.65;;
39400;SDS011;54391;50.000;7.360;2023-05-10T05:38:43;4.50;;;2.28;;
39400;SDS011;54391;50.000;7.360;2023-05-10T05:41:10;11.32;;;4.10;;
39400;SDS011;54391;50.000;7.360;2023-05-10T05:43:38;16.30;;;3.65;;
39400;SDS011;54391;50.000;7.360;2023-05-10T05:46:05;16.38;;;4.38;;
39400;SDS011;54391;50.000;7.360;2023-05-10T05:48:32;7.72;;;3.63;;
39400;SDS011;54391;50.000;7.360;2023-05-10T05:50:59;6.75;;;2.92;;
39400;SDS011;54391;50.000;7.360;2023-05-10T05:53:27;11.65;;;3.63;;
39400;SDS011;54391;50.000;7.360;2023-05-10T05:55:56;14.55;;;3.85;;
39400;SDS011;54391;50.000;7.360;2023-05-10T05:58:24;9.45;;;3.25;;
39400;SDS011;54391;50.000;7.360;2023-05-10T06:00:51;16.20;;;4.88;;
39400;SDS011;54391;50.000;7.360;2023-05-10T06:03:19;10.95;;;4.20;;
39400;SDS011;54391;50.000;7.360;2023-05-10T06:05:46;4.30;;;2.97;;
39400;SDS011;54391;50.000;7.360;2023-05-10T06:08:13;4.22;;;2.38;;
39400;SDS011;54391;50.000;7.360;2023-05-10T06:10:41;4.88;;;2.40;;
39400;SDS011;54391;50.000;7.360;2023-05-10T06:13:09;5.38;;;2.65;;
39400;SDS011;54391;50.000;7.360;2023-05-10T06:15:37;3.47;;;2.50;;
39400;SDS011;54391;50.000;7.360;2023-05-10T06:18:04;4.18;;;3.08;;
39400;SDS011;54391;50.000;7.360;2023-05-10T06:20:31;5.15;;;2.65;;
39400;SDS011;54391;50.000;7.360;2023-05-10T06:22:58;4.65;;;2.65;;
39400;SDS011;54391;50.000;7.360;2023-05-10T06:25:26;4.43;;;2.40;;
39400;SDS011;54391;50.000;7.360;2023-05-10T06:27:53;3.15;;;2.30;;
39400;SDS011;54391;50.000;7.360;2023-05-10T06:30:25;2.95;;;2.28;;
39400;SDS011;54391;50.000;7.360;2023-05-10T06:32:53;4.13;;;2.40;;
39400;SDS011;54391;50.000;7.360;2023-05-10T06:35:21;3.97;;;2.70;;
39400;SDS011;54391;50.000;7.360;2023-05-10T06:37:48;2.75;;;2.15;;
39400;SDS011;54391;50.000;7.360;2023-05-10T06:40:16;3.42;;;2.25;;
39400;SDS011;54391;50.000;7.360;2023-05-10T06:42:43;3.40;;;2.13;;
39400;SDS011;54391;50.000;7.360;2023-05-10T06:45:11;3.42;;;2.28;;
39400;SDS011;54391;50.000;7.360;2023-05-10T06:47:40;2.83;;;1.80;;
39400;SDS011;54391;50.000;7.360;2023-05-10T06:50:08;4.28;;;2.00;;
39400;SDS011;54391;50.000;7.360;2023-05-10T06:52:36;3.08;;;1.90;;
39400;SDS011;54391;50.000;7.360;2023-05-10T06:55:04;2.67;;;2.13;;
39400;SDS011;54391;50.000;7.360;2023-05-10T06:57:31;2.33;;;1.80;;
39400;SDS011;54391;50.000;7.360;2023-05-10T06:59:59;3.13;;;1.77;;
39400;SDS011;54391;50.000;7.360;2023-05-10T07:02:28;2.15;;;1.75;;
39400;SDS011;54391;50.000;7.360;2023-05-10T07:04:56;2.25;;;1.40;;
39400;SDS011;54391;50.000;7.360;2023-05-10T07:07:23;2.58;;;1.88;;
39400;SDS011;54391;50.000;7.360;2023-05-10T07:09:50;1.75;;;1.38;;
39400;SDS011;54391;50.000;7.360;2023-05-10T07:12:18;3.53;;;1.42;;
39400;SDS011;54391;50.000;7.360;2023-05-10T07:14:45;1.30;;;1.10;;
39400;SDS011;54391;50.000;7.360;2023-05-10T07:17:12;1.25;;;0.93;;
39400;SDS011;54391;50.000;7.360;2023-05-10T07:19:40;1.50;;;0.90;;
39400;SDS011;54391;50.000;7.360;2023-05-10T07:22:08;1.60;;;0.80;;
39400;SDS011;54391;50.000;7.360;2023-05-10T07:24:36;1.35;;;0.80;;
39400;SDS011;54391;50.000;7.360;2023-05-10T07:27:04;1.50;;;0.60;;
39400;SDS011;54391;50.000;7.360;2023-05-10T07:29:31;0.90;;;0.60;;
39400;SDS011;54391;50.000;7.360;2023-05-10T07:31:58;1.48;;;0.75;;
39400;SDS011;54391;50.000;7.360;2023-05-10T07:34:27;1.10;;;0.60;;
39400;SDS011;54391;50.000;7.360;2023-05-10T07:36:56;1.00;;;0.57;;
39400;SDS011;54391;50.000;7.360;2023-05-10T07:39:25;1.20;;;0.60;;
39400;SDS011;54391;50.000;7.360;2023-05-10T07:41:53;1.13;;;0.55;;
39400;SDS011;54391;50.000;7.360;2023-05-10T07:44:20;1.15;;;0.52;;
39400;SDS011;54391;50.000;7.360;2023-05-10T07:46:47;0.70;;;0.40;;
39400;SDS011;54391;50.000;7.360;2023-05-10T07:49:14;1.00;;;0.55;;
39400;SDS011;54391;50.000;7.360;2023-05-10T07:51:42;0.90;;;0.43;;
39400;SDS011;54391;50.000;7.360;2023-05-10T07:54:09;0.55;;;0.52;;
39400;SDS011;54391;50.000;7.360;2023-05-10T07:56:39;2.95;;;0.60;;
39400;SDS011;54391;50.000;7.360;2023-05-10T07:59:14;0.60;;;0.50;;
39400;SDS011;54391;50.000;7.360;2023-05-10T08:01:41;1.27;;;0.60;;
39400;SDS011;54391;50.000;7.360;2023-05-10T08:04:08;0.77;;;0.55;;
39400;SDS011;54391;50.000;7.360;2023-05-10T08:06:36;1.20;;;0.90;;
39400;SDS011;54391;50.000;7.360;2023-05-10T08:09:03;1.60;;;0.60;;
39400;SDS011;54391;50.000;7.360;2023-05-10T08:11:31;2.03;;;0.65;;
39400;SDS011;54391;50.000;7.360;2023-05-10T08:13:59;0.65;;;0.60;;
39400;SDS011;54391;50.000;7.360;2023-05-10T08:16:27;0.90;;;0.50;;
39400;SDS011;54391;50.000;7.360;2023-05-10T08:18:54;0.85;;;0.60;;
39400;SDS011;54391;50.000;7.360;2023-05-10T08:21:21;1.67;;;0.80;;
39400;SDS011;54391;50.000;7.360;2023-05-10T08:23:48;1.45;;;0.50;;
39400;SDS011;54391;50.000;7.360;2023-05-10T08:26:15;0.50;;;0.50;;
39400;SDS011;54391;50.000;7.360;2023-05-10T08:28:43;4.47;;;0.80;;
39400;SDS011;54391;50.000;7.360;2023-05-10T08:31:11;0.90;;;0.80;;
39400;SDS011;54391;50.000;7.360;2023-05-10T08:33:38;1.55;;;0.73;;
39400;SDS011;54391;50.000;7.360;2023-05-10T08:36:05;0.90;;;0.80;;
39400;SDS011;54391;50.000;7.360;2023-05-10T08:38:33;2.25;;;0.93;;
39400;SDS011;54391;50.000;7.360;2023-05-10T08:41:00;1.60;;;0.90;;
39400;SDS011;54391;50.000;7.360;2023-05-10T08:43:28;1.13;;;0.70;;
39400;SDS011;54391;50.000;7.360;2023-05-10T08:45:57;1.63;;;0.80;;
39400;SDS011;54391;50.000;7.360;2023-05-10T08:48:29;1.60;;;0.90;;
39400;SDS011;54391;50.000;7.360;2023-05-10T08:50:57;1.08;;;0.60;;
39400;SDS011;54391;50.000;7.360;2023-05-10T08:53:27;1.67;;;0.60;;
39400;SDS011;54391;50.000;7.360;2023-05-10T08:55:57;2.45;;;0.82;;
39400;SDS011;54391;50.000;7.360;2023-05-10T08:58:24;1.00;;;0.60;;
39400;SDS011;54391;50.000;7.360;2023-05-10T09:00:52;1.75;;;0.70;;
39400;SDS011;54391;50.000;7.360;2023-05-10T09:03:19;0.70;;;0.70;;
39400;SDS011;54391;50.000;7.360;2023-05-10T09:05:48;1.05;;;0.73;;
39400;SDS011;54391;50.000;7.360;2023-05-10T09:08:15;2.35;;;1.10;;
39400;SDS011;54391;50.000;7.360;2023-05-10T09:10:42;1.65;;;1.00;;
39400;SDS011;54391;50.000;7.360;2023-05-10T09:13:12;2.60;;;1.20;;
39400;SDS011;54391;50.000;7.360;2023-05-10T09:15:43;1.10;;;0.95;;
39400;SDS011;54391;50.000;7.360;2023-05-10T09:18:11;3.38;;;0.90;;
39400;SDS011;54391;50.000;7.360;2023-05-10T09:20:38;2.67;;;1.02;;
39400;SDS011;54391;50.000;7.360;2023-05-10T09:23:07;1.23;;;0.90;;
39400;SDS011;54391;50.000;7.360;2023-05-10T09:25:34;1.00;;;0.85;;
39400;SDS011;54391;50.000;7.360;2023-05-10T09:28:05;5.80;;;1.00;;
39400;SDS011;54391;50.000;7.360;2023-05-10T09:30:33;0.85;;;0.68;;
39400;SDS011;54391;50.000;7.360;2023-05-10T09:33:01;1.70;;;0.60;;
39400;SDS011;54391;50.000;7.360;2023-05-10T09:35:29;1.90;;;0.60;;
39400;SDS011;54391;50.000;7.360;2023-05-10T09:37:58;4.15;;;1.15;;
39400;SDS011;54391;50.000;7.360;2023-05-10T09:40:28;2.13;;;0.80;;
39400;SDS011;54391;50.000;7.360;2023-05-10T09:42:57;0.80;;;0.63;;
39400;SDS011;54391;50.000;7.360;2023-05-10T09:45:27;1.30;;;0.77;;
39400;SDS011;54391;50.000;7.360;2023-05-10T09:47:55;2.67;;;1.05;;
39400;SDS011;54391;50.000;7.360;2023-05-10T09:50:24;4.95;;;0.73;;
39400;SDS011;54391;50.000;7.360;2023-05-10T09:52:52;4.32;;;0.82;;
39400;SDS011;54391;50.000;7.360;2023-05-10T09:55:21;1.40;;;0.70;;
39400;SDS011;54391;50.000;7.360;2023-05-10T09:57:58;7.63;;;1.38;;
39400;SDS011;54391;50.000;7.360;2023-05-10T10:00:27;3.03;;;0.95;;
39400;SDS011;54391;50.000;7.360;2023-05-10T10:02:55;0.63;;;0.50;;
39400;SDS011;54391;50.000;7.360;2023-05-10T10:05:27;1.83;;;0.80;;
39400;SDS011;54391;50.000;7.360;2023-05-10T10:07:55;1.13;;;0.80;;
39400;SDS011;54391;50.000;7.360;2023-05-10T10:10:22;6.43;;;1.17;;
39400;SDS011;54391;50.000;7.360;2023-05-10T10:12:50;0.98;;;0.70;;
39400;SDS011;54391;50.000;7.360;2023-05-10T10:15:18;1.20;;;0.85;;
39400;SDS011;54391;50.000;7.360;2023-05-10T10:17:47;6.15;;;1.48;;
39400;SDS011;54391;50.000;7.360;2023-05-10T10:20:15;3.33;;;0.70;;
39400;SDS011;54391;50.000;7.360;2023-05-10T10:22:43;1.05;;;0.90;;
39400;SDS011;54391;50.000;7.360;2023-05-10T10:25:11;1.23;;;0.50;;
39400;SDS011;54391;50.000;7.360;2023-05-10T10:27:43;1.20;;;0.60;;
39400;SDS011;54391;50.000;7.360;2023-05-10T10:32:55;1.77;;;1.00;;
39400;SDS011;54391;50.000;7.360;2023-05-10T10:35:34;1.30;;;0.70;;
39400;SDS011;54391;50.000;7.360;2023-05-10T10:38:02;1.90;;;0.70;;
39400;SDS011;54391;50.000;7.360;2023-05-10T10:40:30;1.75;;;0.57;;
39400;SDS011;54391;50.000;7.360;2023-05-10T10:42:58;2.20;;;0.63;;
39400;SDS011;54391;50.000;7.360;2023-05-10T10:48:39;2.03;;;0.70;;
39400;SDS011;54391;50.000;7.360;2023-05-10T10:51:07;2.25;;;1.08;;
39400;SDS011;54391;50.000;7.360;2023-05-10T10:53:36;1.25;;;0.73;;
39400;SDS011;54391;50.000;7.360;2023-05-10T10:56:04;1.77;;;0.82;;
39400;SDS011;54391;50.000;7.360;2023-05-10T10:58:34;1.38;;;0.70;;
39400;SDS011;54391;50.000;7.360;2023-05-10T11:01:13;2.35;;;0.90;;
39400;SDS011;54391;50.000;7.360;2023-05-10T11:03:41;1.65;;;0.85;;
39400;SDS011;54391;50.000;7.360;2023-05-10T11:06:41;1.05;;;0.93;;
39400;SDS011;54391;50.000;7.360;2023-05-10T11:09:09;1.05;;;0.80;;
39400;SDS011;54391;50.000;7.360;2023-05-10T11:11:48;2.05;;;1.00;;
39400;SDS011;54391;50.000;7.360;2023-05-10T11:14:19;1.77;;;1.13;;
39400;SDS011;54391;50.000;7.360;2023-05-10T11:16:49;2.67;;;1.55;;
39400;SDS011;54391;50.000;7.360;2023-05-10T11:19:16;4.60;;;1.10;;
39400;SDS011;54391;50.000;7.360;2023-05-10T11:21:45;4.80;;;1.10;;
39400;SDS011;54391;50.000;7.360;2023-05-10T11:24:14;1.98;;;1.23;;
39400;SDS011;54391;50.000;7.360;2023-05-10T11:26:43;1.70;;;1.33;;
39400;SDS011;54391;50.000;7.360;2023-05-10T11:29:11;2.85;;;1.35;;
39400;SDS011;54391;50.000;7.360;2023-05-10T11:31:42;1.88;;;1.23;;
39400;SDS011;54391;50.000;7.360;2023-05-10T11:34:15;3.38;;;1.40;;
39400;SDS011;54391;50.000;7.360;2023-05-10T11:36:50;8.23;;;1.52;;
39400;SDS011;54391;50.000;7.360;2023-05-10T11:39:19;3.40;;;1.27;;
39400;SDS011;54391;50.000;7.360;2023-05-10T11:41:47;2.22;;;0.93;;
39400;SDS011;54391;50.000;7.360;2023-05-10T11:44:15;1.88;;;1.02;;
39400;SDS011;54391;50.000;7.360;2023-05-10T11:46:42;2.15;;;1.27;;
39400;SDS011;54391;50.000;7.360;2023-05-10T11:49:09;2.22;;;1.23;;
39400;SDS011;54391;50.000;7.360;2023-05-10T11:51:39;2.45;;;1.00;;
39400;SDS011;54391;50.000;7.360;2023-05-10T11:54:09;2.58;;;0.82;;
39400;SDS011;54391;50.000;7.360;2023-05-10T11:56:37;1.02;;;0.70;;
39400;SDS011;54391;50.000;7.360;2023-05-10T11:59:05;2.00;;;0.93;;
39400;SDS011;54391;50.000;7.360;2023-05-10T12:01:33;2.20;;;1.00;;
39400;SDS011;54391;50.000;7.360;2023-05-10T12:04:00;2.75;;;1.10;;
39400;SDS011;54391;50.000;7.360;2023-05-10T12:06:29;2.67;;;1.10;;
39400;SDS011;54391;50.000;7.360;2023-05-10T12:08:58;2.88;;;1.38;;
39400;SDS011;54391;50.000;7.360;2023-05-10T12:11:28;3.25;;;1.10;;
39400;SDS011;54391;50.000;7.360;2023-05-10T12:13:55;2.65;;;1.45;;
39400;SDS011;54391;50.000;7.360;2023-05-10T12:16:23;4.47;;;1.25;;
39400;SDS011;54391;50.000;7.360;2023-05-10T12:18:51;2.92;;;1.20;;
39400;SDS011;54391;50.000;7.360;2023-05-10T12:21:19;6.30;;;1.40;;
39400;SDS011;54391;50.000;7.360;2023-05-10T12:23:48;1.48;;;1.23;;
39400;SDS011;54391;50.000;7.360;2023-05-10T12:26:17;8.35;;;2.47;;
39400;SDS011;54391;50.000;7.360;2023-05-10T12:28:45;2.05;;;1.10;;
39400;SDS011;54391;50.000;7.360;2023-05-10T12:31:12;4.07;;;1.33;;
39400;SDS011;54391;50.000;7.360;2023-05-10T12:33:40;4.70;;;1.50;;
39400;SDS011;54391;50.000;7.360;2023-05-10T12:36:09;3.13;;;1.30;;
39400;SDS011;54391;50.000;7.360;2023-05-10T12:38:37;4.00;;;1.60;;
39400;SDS011;54391;50.000;7.360;2023-05-10T12:41:08;3.10;;;1.70;;
39400;SDS011;54391;50.000;7.360;2023-05-10T12:43:39;2.22;;;1.48;;
39400;SDS011;54391;50.000;7.360;2023-05-10T12:46:07;4.05;;;1.70;;
39400;SDS011;54391;50.000;7.360;2023-05-10T12:48:35;3.45;;;1.60;;
39400;SDS011;54391;50.000;7.360;2023-05-10T12:51:04;3.20;;;1.60;;
39400;SDS011;54391;50.000;7.360;2023-05-10T12:53:34;5.05;;;1.63;;
39400;SDS011;54391;50.000;7.360;2023-05-10T12:56:02;3.90;;;1.63;;
39400;SDS011;54391;50.000;7.360;2023-05-10T12:58:29;6.18;;;1.50;;
39400;SDS011;54391;50.000;7.360;2023-05-10T13:00:58;2.55;;;1.45;;
39400;SDS011;54391;50.000;7.360;2023-05-10T13:03:27;2.50;;;1.52;;
39400;SDS011;54391;50.000;7.360;2023-05-10T13:05:54;2.22;;;1.50;;
39400;SDS011;54391;50.000;7.360;2023-05-10T13:08:21;7.25;;;2.50;;
39400;SDS011;54391;50.000;7.360;2023-05-10T13:10:49;3.53;;;1.65;;
39400;SDS011;54391;50.000;7.360;2023-05-10T13:13:16;4.65;;;1.80;;
39400;SDS011;54391;50.000;7.360;2023-05-10T13:15:43;2.53;;;1.80;;
39400;SDS011;54391;50.000;7.360;2023-05-10T13:18:11;3.22;;;1.85;;
39400;SDS011;54391;50.000;7.360;2023-05-10T13:20:41;3.42;;;1.52;;
39400;SDS011;54391;50.000;7.360;2023-05-10T13:23:09;1.80;;;1.02;;
39400;SDS011;54391;50.000;7.360;2023-05-10T13:25:36;6.97;;;1.90;;
39400;SDS011;54391;50.000;7.360;2023-05-10T13:28:04;3.33;;;1.77;;
39400;SDS011;54391;50.000;7.360;2023-05-10T13:30:31;9.40;;;1.90;;
39400;SDS011;54391;50.000;7.360;2023-05-10T13:32:58;4.32;;;1.63;;
39400;SDS011;54391;50.000;7.360;2023-05-10T13:35:28;6.03;;;1.50;;
39400;SDS011;54391;50.000;7.360;2023-05-10T13:37:55;5.30;;;1.50;;
39400;SDS011;54391;50.000;7.360;2023-05-10T13:40:22;4.20;;;1.52;;
39400;SDS011;54391;50.000;7.360;2023-05-10T13:42:50;2.70;;;1.65;;
39400;SDS011;54391;50.000;7.360;2023-05-10T13:45:18;4.10;;;1.90;;
39400;SDS011;54391;50.000;7.360;2023-05-10T13:47:47;4.25;;;1.67;;
39400;SDS011;54391;50.000;7.360;2023-05-10T13:50:15;4.38;;;1.70;;
39400;SDS011;54391;50.000;7.360;2023-05-10T13:52:44;4.82;;;1.92;;
39400;SDS011;54391;50.000;7.360;2023-05-10T13:55:12;3.35;;;1.88;;
39400;SDS011;54391;50.000;7.360;2023-05-10T13:57:39;3.80;;;1.55;;
39400;SDS011;54391;50.000;7.360;2023-05-10T14:00:08;4.60;;;1.90;;
39400;SDS011;54391;50.000;7.360;2023-05-10T14:02:36;4.88;;;1.95;;
39400;SDS011;54391;50.000;7.360;2023-05-10T14:05:03;5.22;;;2.05;;
39400;SDS011;54391;50.000;7.360;2023-05-10T14:07:30;5.72;;;2.08;;
39400;SDS011;54391;50.000;7.360;2023-05-10T14:09:59;4.32;;;1.50;;
39400;SDS011;54391;50.000;7.360;2023-05-10T14:12:28;3.63;;;1.80;;
39400;SDS011;54391;50.000;7.360;2023-05-10T14:14:55;7.65;;;3.03;;
39400;SDS011;54391;50.000;7.360;2023-05-10T14:17:23;4.00;;;1.83;;
39400;SDS011;54391;50.000;7.360;2023-05-10T14:19:50;7.85;;;1.95;;
39400;SDS011;54391;50.000;7.360;2023-05-10T14:22:18;5.45;;;1.55;;
39400;SDS011;54391;50.000;7.360;2023-05-10T14:24:45;6.05;;;1.67;;
39400;SDS011;54391;50.000;7.360;2023-05-10T14:27:14;4.18;;;1.40;;
39400;SDS011;54391;50.000;7.360;2023-05-10T14:29:41;3.22;;;1.30;;
39400;SDS011;54391;50.000;7.360;2023-05-10T14:32:08;3.42;;;1.27;;
39400;SDS011;54391;50.000;7.360;2023-05-10T14:34:36;5.25;;;1.20;;
39400;SDS011;54391;50.000;7.360;2023-05-10T14:37:03;5.00;;;1.20;;
39400;SDS011;54391;50.000;7.360;2023-05-10T14:39:30;1.98;;;1.23;;
39400;SDS011;54391;50.000;7.360;2023-05-10T14:41:58;1.30;;;1.05;;
39400;SDS011;54391;50.000;7.360;2023-05-10T14:44:28;2.40;;;1.23;;
39400;SDS011;54391;50.000;7.360;2023-05-10T14:46:55;4.93;;;1.30;;
39400;SDS011;54391;50.000;7.360;2023-05-10T14:49:22;2.80;;;1.20;;
39400;SDS011;54391;50.000;7.360;2023-05-10T14:51:51;3.45;;;1.13;;
39400;SDS011;54391;50.000;7.360;2023-05-10T14:54:18;3.17;;;1.20;;
39400;SDS011;54391;50.000;7.360;2023-05-10T14:56:46;2.17;;;1.33;;
39400;SDS011;54391;50.000;7.360;2023-05-10T14:59:14;1.48;;;1.25;;
39400;SDS011;54391;50.000;7.360;2023-05-10T15:01:43;6.88;;;1.58;;
39400;SDS011;54391;50.000;7.360;2023-05-10T15:04:10;5.43;;;1.42;;
39400;SDS011;54391;50.000;7.360;2023-05-10T15:06:38;4.35;;;1.15;;